Wetterdaten: Woche 12.03.18 - 18.03.18 (KW11)
Datum Zeit Temp. A. Feuchte A. Luftdruck Regen Wind Richtung Taupunkt Windchill Windben
12.03.2018 00:00 12,3 C 76 % 996,9 hPa 0,0 l/m 0,5 km/h N 8,1 C 12,3 C 4,4 km/h
12.03.2018 01:00 12,0 C 77 % 996,2 hPa 0,0 l/m 0,5 km/h N 8,0 C 12,0 C 6,0 km/h
12.03.2018 02:00 11,3 C 78 % 995,5 hPa 0,0 l/m 1,6 km/h N 7,5 C 11,3 C 7,2 km/h
12.03.2018 03:00 10,4 C 80 % 994,4 hPa 0,0 l/m 0,5 km/h N 7,0 C 10,4 C 4,4 km/h
12.03.2018 04:00 9,8 C 81 % 993,3 hPa 0,0 l/m 0,2 km/h N 6,6 C 9,8 C 3,2 km/h
12.03.2018 05:00 9,6 C 82 % 992,6 hPa 0,0 l/m 0,2 km/h N 6,7 C 9,6 C 3,2 km/h
12.03.2018 06:00 10,1 C 82 % 992,5 hPa 0,0 l/m 0,1 km/h N 7,2 C 10,1 C 3,6 km/h
12.03.2018 07:00 10,4 C 81 % 992,9 hPa 0,0 l/m 0,7 km/h N 7,3 C 10,4 C 7,7 km/h
12.03.2018 08:00 12,5 C 75 % 993,6 hPa 0,0 l/m 0,9 km/h N 8,1 C 12,5 C 7,2 km/h
12.03.2018 09:00 14,1 C 68 % 994,5 hPa 0,0 l/m 1,4 km/h N 8,2 C 14,1 C 9,6 km/h
12.03.2018 10:00 15,0 C 63 % 995,0 hPa 0,0 l/m 4,0 km/h N 8,0 C 15,0 C 12,1 km/h
12.03.2018 11:00 14,6 C 62 % 995,8 hPa 0,0 l/m 9,0 km/h N 7,3 C 13,2 C 24,1 km/h
12.03.2018 12:00 14,4 C 61 % 996,5 hPa 0,0 l/m 10,7 km/h N 7,0 C 12,1 C 28,6 km/h
12.03.2018 13:00 13,7 C 63 % 996,9 hPa 0,0 l/m 9,2 km/h N 6,8 C 12,1 C 25,3 km/h
12.03.2018 14:00 13,5 C 65 % 996,9 hPa 0,0 l/m 3,9 km/h N 6,9 C 13,5 C 12,5 km/h
12.03.2018 15:00 12,7 C 71 % 997,2 hPa 0,3 l/m 4,4 km/h N 7,5 C 12,7 C 15,3 km/h
12.03.2018 16:00 10,6 C 80 % 997,4 hPa 2,3 l/m 0,8 km/h N 7,4 C 10,6 C 2,4 km/h
12.03.2018 17:00 10,2 C 83 % 998,2 hPa 0,0 l/m 0,8 km/h N 7,3 C 10,2 C 7,6 km/h
12.03.2018 18:00 9,9 C 83 % 998,7 hPa 0,0 l/m 0,3 km/h N 7,2 C 9,9 C 3,6 km/h
12.03.2018 19:00 9,6 C 83 % 999,4 hPa 0,3 l/m 0,9 km/h N 6,9 C 9,6 C 5,6 km/h
12.03.2018 20:00 9,4 C 83 % 999,4 hPa 0,3 l/m 0,0 km/h N 6,6 C 9,4 C 0,8 km/h
12.03.2018 21:00 8,4 C 83 % 999,8 hPa 0,0 l/m 0,0 km/h N 5,7 C 8,4 C 0,4 km/h
12.03.2018 22:00 8,1 C 83 % 1000,0 hPa 0,0 l/m 0,0 km/h N 5,3 C 8,1 C 0,4 km/h
12.03.2018 23:00 7,7 C 83 % 1000,6 hPa 0,0 l/m 0,4 km/h N 5,0 C 7,7 C 1,6 km/h
13.03.2018 00:00 8,6 C 82 % 1000,7 hPa 0,0 l/m 3,8 km/h N 5,6 C 8,6 C 16,1 km/h
13.03.2018 01:00 10,7 C 70 % 1001,0 hPa 0,0 l/m 5,0 km/h N 5,4 C 10,6 C 17,7 km/h
13.03.2018 02:00 10,8 C 66 % 1000,8 hPa 0,0 l/m 7,3 km/h N 4,6 C 10,2 C 22,9 km/h
13.03.2018 03:00 10,6 C 64 % 1001,1 hPa 0,3 l/m 5,4 km/h N 4,2 C 10,2 C 18,1 km/h
13.03.2018 04:00 10,2 C 65 % 1001,7 hPa 0,0 l/m 3,7 km/h N 3,9 C 10,2 C 16,9 km/h
13.03.2018 05:00 10,0 C 65 % 1002,2 hPa 0,0 l/m 2,8 km/h N 3,8 C 10,0 C 13,7 km/h
13.03.2018 06:00 9,9 C 67 % 1002,8 hPa 0,0 l/m 6,6 km/h N 4,1 C 9,3 C 25,8 km/h
13.03.2018 07:00 10,1 C 68 % 1003,6 hPa 0,0 l/m 7,2 km/h N 4,6 C 9,6 C 24,9 km/h
13.03.2018 08:00 11,2 C 65 % 1004,4 hPa 0,0 l/m 9,1 km/h N 4,9 C 9,5 C 26,6 km/h
13.03.2018 09:00 11,5 C 65 % 1005,1 hPa 0,0 l/m 7,7 km/h N 5,0 C 10,6 C 22,9 km/h
13.03.2018 10:00 12,4 C 60 % 1005,3 hPa 0,0 l/m 11,3 km/h N 4,9 C 9,6 C 28,2 km/h
13.03.2018 11:00 13,1 C 57 % 1005,4 hPa 0,0 l/m 13,3 km/h N 4,7 C 9,6 C 31,0 km/h
13.03.2018 12:00 13,1 C 53 % 1005,2 hPa 0,0 l/m 11,7 km/h N 3,6 C 10,3 C 31,8 km/h
13.03.2018 13:00 14,1 C 48 % 1004,5 hPa 0,0 l/m 10,9 km/h N 3,2 C 11,8 C 32,2 km/h
13.03.2018 14:00 14,6 C 44 % 1004,2 hPa 0,0 l/m 9,4 km/h N 2,4 C 13,0 C 22,5 km/h
13.03.2018 15:00 14,8 C 42 % 1004,2 hPa 0,0 l/m 9,3 km/h N 1,8 C 13,2 C 25,0 km/h
13.03.2018 16:00 14,7 C 42 % 1004,3 hPa 0,0 l/m 8,8 km/h N 1,8 C 13,4 C 23,7 km/h
13.03.2018 17:00 14,2 C 43 % 1004,4 hPa 0,0 l/m 5,3 km/h N 1,6 C 14,2 C 18,1 km/h
13.03.2018 18:00 12,5 C 47 % 1005,0 hPa 0,0 l/m 0,1 km/h N 1,4 C 12,5 C 2,4 km/h
13.03.2018 19:00 11,3 C 52 % 1005,7 hPa 0,0 l/m 0,7 km/h N 1,7 C 11,3 C 4,8 km/h
13.03.2018 20:00 10,5 C 55 % 1006,3 hPa 0,0 l/m 1,0 km/h N 1,7 C 10,5 C 4,4 km/h
13.03.2018 21:00 10,8 C 56 % 1006,6 hPa 0,0 l/m 3,3 km/h N 2,3 C 10,8 C 13,3 km/h
13.03.2018 22:00 10,5 C 58 % 1007,0 hPa 0,0 l/m 3,5 km/h N 2,7 C 10,5 C 12,1 km/h
13.03.2018 23:00 10,5 C 60 % 1007,3 hPa 0,0 l/m 6,7 km/h N 3,0 C 10,1 C 21,7 km/h
14.03.2018 00:00 10,1 C 62 % 1007,4 hPa 0,0 l/m 6,7 km/h N 3,1 C 9,7 C 20,9 km/h
14.03.2018 01:00 9,9 C 62 % 1007,7 hPa 0,0 l/m 7,0 km/h N 3,0 C 9,4 C 24,1 km/h
14.03.2018 02:00 9,6 C 63 % 1007,4 hPa 0,0 l/m 8,0 km/h N 3,0 C 8,5 C 24,9 km/h
14.03.2018 03:00 9,3 C 65 % 1007,5 hPa 0,0 l/m 8,4 km/h N 3,0 C 7,9 C 29,0 km/h
14.03.2018 04:00 9,1 C 67 % 1008,0 hPa 0,0 l/m 8,8 km/h N 3,3 C 7,4 C 25,8 km/h
14.03.2018 05:00 8,6 C 69 % 1008,4 hPa 0,0 l/m 7,7 km/h N 3,1 C 7,6 C 22,9 km/h
14.03.2018 06:00 8,2 C 70 % 1008,8 hPa 0,0 l/m 6,4 km/h N 3,0 C 7,9 C 22,5 km/h
14.03.2018 07:00 7,9 C 72 % 1009,4 hPa 0,0 l/m 8,7 km/h N 3,1 C 6,1 C 22,9 km/h
14.03.2018 08:00 8,1 C 72 % 1010,2 hPa 0,0 l/m 8,8 km/h N 3,3 C 6,3 C 24,1 km/h
14.03.2018 09:00 8,4 C 69 % 1010,7 hPa 0,0 l/m 11,1 km/h N 3,0 C 5,2 C 28,5 km/h
14.03.2018 10:00 8,7 C 68 % 1010,9 hPa 0,0 l/m 10,0 km/h N 3,1 C 6,2 C 29,8 km/h
14.03.2018 11:00 8,7 C 67 % 1011,2 hPa 0,0 l/m 10,6 km/h N 2,9 C 5,9 C 24,1 km/h
14.03.2018 12:00 8,6 C 67 % 1011,2 hPa 0,0 l/m 7,9 km/h N 2,9 C 7,5 C 23,3 km/h
14.03.2018 13:00 9,0 C 65 % 1010,9 hPa 0,0 l/m 7,3 km/h N 2,7 C 8,3 C 22,9 km/h
14.03.2018 14:00 8,6 C 67 % 1010,9 hPa 0,0 l/m 7,3 km/h N 2,8 C 7,6 C 22,2 km/h
14.03.2018 15:00 9,3 C 63 % 1010,6 hPa 0,0 l/m 6,3 km/h N 2,5 C 8,9 C 20,9 km/h
14.03.2018 16:00 9,8 C 61 % 1010,1 hPa 0,0 l/m 2,1 km/h N 2,5 C 9,8 C 11,7 km/h
14.03.2018 17:00 9,4 C 63 % 1010,2 hPa 0,0 l/m 2,5 km/h N 2,7 C 9,4 C 11,8 km/h
14.03.2018 18:00 7,1 C 73 % 1010,8 hPa 0,0 l/m 1,1 km/h N 2,7 C 7,1 C 8,4 km/h
14.03.2018 19:00 6,8 C 75 % 1010,8 hPa 0,0 l/m 1,3 km/h N 2,5 C 6,8 C 9,3 km/h
14.03.2018 20:00 6,9 C 76 % 1010,7 hPa 0,0 l/m 1,3 km/h N 2,9 C 6,9 C 7,2 km/h
14.03.2018 21:00 6,7 C 78 % 1010,7 hPa 0,0 l/m 0,2 km/h N 3,1 C 6,7 C 3,2 km/h
14.03.2018 22:00 5,8 C 79 % 1010,4 hPa 0,0 l/m 0,0 km/h N 2,5 C 5,8 C 0,0 km/h
14.03.2018 23:00 4,4 C 80 % 1010,4 hPa 0,0 l/m 0,0 km/h N 1,2 C 4,4 C 0,0 km/h
15.03.2018 00:00 3,2 C 81 % 1010,2 hPa 0,0 l/m 0,0 km/h N 0,3 C 3,2 C 0,0 km/h
15.03.2018 01:00 3,3 C 83 % 1009,9 hPa 0,0 l/m 0,0 km/h N 0,7 C 3,3 C 0,0 km/h
15.03.2018 02:00 3,7 C 83 % 1009,1 hPa 0,0 l/m 0,0 km/h N 1,1 C 3,7 C 0,0 km/h
15.03.2018 03:00 3,9 C 83 % 1008,3 hPa 0,0 l/m 0,0 km/h N 1,3 C 3,9 C 0,0 km/h
15.03.2018 04:00 4,1 C 83 % 1007,8 hPa 0,0 l/m 0,0 km/h N 1,5 C 4,1 C 0,0 km/h
15.03.2018 05:00 4,2 C 83 % 1007,5 hPa 0,0 l/m 0,0 km/h N 1,5 C 4,2 C 0,8 km/h
15.03.2018 06:00 4,3 C 82 % 1007,5 hPa 0,0 l/m 0,1 km/h N 1,5 C 4,3 C 1,6 km/h
15.03.2018 07:00 4,3 C 82 % 1007,6 hPa 0,0 l/m 0,1 km/h N 1,5 C 4,3 C 5,6 km/h
15.03.2018 08:00 4,7 C 82 % 1007,6 hPa 0,0 l/m 0,1 km/h N 1,9 C 4,7 C 5,2 km/h
15.03.2018 09:00 5,6 C 82 % 1007,3 hPa 0,0 l/m 0,2 km/h N 2,7 C 5,6 C 4,4 km/h
15.03.2018 10:00 5,9 C 80 % 1007,3 hPa 0,0 l/m 0,3 km/h N 2,7 C 5,9 C 5,6 km/h
15.03.2018 11:00 6,2 C 78 % 1007,2 hPa 0,0 l/m 1,4 km/h N 2,6 C 6,2 C 8,8 km/h
15.03.2018 12:00 7,0 C 78 % 1007,0 hPa 0,0 l/m 0,9 km/h N 3,4 C 7,0 C 8,8 km/h
15.03.2018 13:00 6,9 C 78 % 1006,3 hPa 0,0 l/m 1,1 km/h N 3,3 C 6,9 C 7,2 km/h
15.03.2018 14:00 6,7 C 79 % 1005,7 hPa 0,0 l/m 0,6 km/h N 3,3 C 6,7 C 6,8 km/h
15.03.2018 15:00 6,7 C 80 % 1005,2 hPa 0,0 l/m 0,2 km/h N 3,5 C 6,7 C 4,4 km/h
15.03.2018 16:00 7,1 C 80 % 1004,5 hPa 0,0 l/m 0,3 km/h N 3,9 C 7,1 C 5,2 km/h
15.03.2018 17:00 7,2 C 81 % 1004,0 hPa 0,0 l/m 0,3 km/h N 4,1 C 7,2 C 5,6 km/h
15.03.2018 18:00 7,1 C 81 % 1004,0 hPa 0,0 l/m 0,1 km/h N 4,1 C 7,1 C 2,8 km/h
15.03.2018 19:00 6,8 C 82 % 1003,9 hPa 0,0 l/m 0,1 km/h N 3,9 C 6,8 C 4,0 km/h
15.03.2018 20:00 6,4 C 82 % 1003,6 hPa 0,0 l/m 0,0 km/h N 3,6 C 6,4 C 2,0 km/h
15.03.2018 21:00 6,3 C 83 % 1002,9 hPa 0,0 l/m 0,0 km/h N 3,5 C 6,3 C 1,6 km/h
15.03.2018 22:00 6,3 C 83 % 1002,2 hPa 0,0 l/m 0,0 km/h N 3,6 C 6,3 C 0,4 km/h
15.03.2018 23:00 5,9 C 83 % 1001,4 hPa 0,0 l/m 0,0 km/h N 3,2 C 5,9 C 0,0 km/h
16.03.2018 00:00 4,9 C 83 % 1000,6 hPa 0,0 l/m 0,0 km/h N 2,3 C 4,9 C 0,0 km/h
16.03.2018 01:00 4,9 C 83 % 1000,1 hPa 0,0 l/m 0,0 km/h N 2,3 C 4,9 C 0,4 km/h
16.03.2018 02:00 7,0 C 83 % 999,6 hPa 0,0 l/m 0,2 km/h N 4,3 C 7,0 C 4,8 km/h
16.03.2018 03:00 7,8 C 82 % 999,5 hPa 0,0 l/m 0,4 km/h N 5,0 C 7,8 C 5,2 km/h
16.03.2018 04:00 8,0 C 81 % 1000,0 hPa 0,3 l/m 0,0 km/h N 5,0 C 8,0 C 1,2 km/h
16.03.2018 05:00 7,6 C 83 % 1000,4 hPa 1,8 l/m 0,0 km/h N 4,8 C 7,6 C 0,8 km/h
16.03.2018 06:00 7,2 C 83 % 1000,9 hPa 1,6 l/m 0,2 km/h N 4,5 C 7,2 C 1,2 km/h
16.03.2018 07:00 6,8 C 83 % 1001,1 hPa 1,6 l/m 0,0 km/h N 4,1 C 6,8 C 0,0 km/h
16.03.2018 08:00 6,7 C 83 % 1001,0 hPa 1,8 l/m 0,0 km/h N 4,0 C 6,7 C 0,0 km/h
16.03.2018 09:00 7,2 C 83 % 1001,1 hPa 2,1 l/m 0,0 km/h N 4,5 C 7,2 C 1,6 km/h
16.03.2018 10:00 7,5 C 83 % 1001,0 hPa 1,3 l/m 0,1 km/h N 4,8 C 7,5 C 2,4 km/h
16.03.2018 11:00 7,9 C 83 % 1000,8 hPa 0,0 l/m 0,0 km/h N 5,2 C 7,9 C 0,4 km/h
16.03.2018 12:00 8,1 C 83 % 1000,6 hPa 0,0 l/m 0,6 km/h N 5,4 C 8,1 C 2,8 km/h
16.03.2018 13:00 8,6 C 83 % 1000,2 hPa 0,0 l/m 6,3 km/h N 5,8 C 8,4 C 21,7 km/h
16.03.2018 14:00 9,9 C 80 % 999,8 hPa 0,0 l/m 8,1 km/h N 6,6 C 8,7 C 18,9 km/h
16.03.2018 15:00 10,1 C 75 % 999,7 hPa 0,0 l/m 7,0 km/h N 5,9 C 9,7 C 19,7 km/h
16.03.2018 16:00 10,5 C 73 % 999,6 hPa 0,0 l/m 5,6 km/h N 5,9 C 10,5 C 19,3 km/h
16.03.2018 17:00 11,1 C 69 % 1000,2 hPa 0,0 l/m 3,2 km/h N 5,7 C 11,1 C 10,9 km/h
16.03.2018 18:00 10,5 C 70 % 1000,8 hPa 0,0 l/m 0,9 km/h N 5,2 C 10,5 C 5,6 km/h
16.03.2018 19:00 8,9 C 75 % 1001,5 hPa 0,0 l/m 0,0 km/h N 4,6 C 8,9 C 0,4 km/h
16.03.2018 20:00 8,4 C 80 % 1001,9 hPa 0,3 l/m 0,8 km/h N 5,2 C 8,4 C 6,0 km/h
16.03.2018 21:00 7,8 C 81 % 1002,1 hPa 0,0 l/m 0,4 km/h N 4,7 C 7,8 C 2,0 km/h
16.03.2018 22:00 7,9 C 82 % 1002,3 hPa 0,0 l/m 0,0 km/h N 5,0 C 7,9 C 2,4 km/h
16.03.2018 23:00 7,2 C 82 % 1002,8 hPa 0,0 l/m 0,1 km/h N 4,3 C 7,2 C 2,0 km/h
17.03.2018 00:00 6,6 C 83 % 1003,4 hPa 0,0 l/m 0,0 km/h N 3,9 C 6,6 C 1,6 km/h
17.03.2018 01:00 5,9 C 83 % 1003,5 hPa 0,0 l/m 0,4 km/h N 3,2 C 5,9 C 6,8 km/h
17.03.2018 02:00 5,1 C 83 % 1003,6 hPa 0,0 l/m 0,0 km/h N 2,4 C 5,1 C 1,2 km/h
17.03.2018 03:00 3,6 C 83 % 1003,5 hPa 0,0 l/m 0,4 km/h N 0,9 C 3,6 C 8,9 km/h
17.03.2018 04:00 2,7 C 82 % 1003,5 hPa 0,0 l/m 0,4 km/h N -0,1 C 2,7 C 6,5 km/h
17.03.2018 05:00 2,2 C 81 % 1003,8 hPa 0,0 l/m 0,4 km/h N -0,7 C 2,2 C 5,6 km/h
17.03.2018 06:00 1,6 C 81 % 1003,9 hPa 0,0 l/m 0,6 km/h N -1,3 C 1,6 C 7,2 km/h
17.03.2018 07:00 1,3 C 81 % 1003,8 hPa 0,0 l/m 0,6 km/h N -1,5 C 1,3 C 8,0 km/h
17.03.2018 08:00 1,1 C 81 % 1003,7 hPa 0,0 l/m 1,3 km/h N -1,8 C 1,1 C 8,9 km/h
17.03.2018 09:00 0,9 C 82 % 1003,5 hPa 0,0 l/m 0,8 km/h N -1,9 C 0,9 C 8,9 km/h
17.03.2018 10:00 1,0 C 82 % 1003,1 hPa 0,0 l/m 3,2 km/h N -1,8 C 1,0 C 9,6 km/h
17.03.2018 11:00 0,9 C 81 % 1003,0 hPa 0,0 l/m 3,6 km/h N -1,9 C 0,9 C 9,7 km/h
17.03.2018 12:00 1,1 C 82 % 1002,6 hPa 0,3 l/m 2,6 km/h N -1,6 C 1,1 C 9,7 km/h
17.03.2018 13:00 0,6 C 84 % 1002,1 hPa 0,5 l/m 1,2 km/h N -1,8 C 0,6 C 8,4 km/h
17.03.2018 14:00 0,3 C 84 % 1001,8 hPa 0,0 l/m 4,1 km/h N -2,1 C 0,3 C 15,7 km/h
17.03.2018 15:00 0,0 C 84 % 1001,8 hPa 0,3 l/m 3,9 km/h N -2,3 C 0,0 C 11,7 km/h
17.03.2018 16:00 -0,3 C 84 % 1001,7 hPa 0,0 l/m 4,7 km/h N -2,7 C -0,3 C 11,3 km/h
17.03.2018 17:00 -0,8 C 84 % 1002,0 hPa 0,0 l/m 5,1 km/h N -3,1 C -0,8 C 10,9 km/h
17.03.2018 18:00 -1,2 C 84 % 1002,5 hPa 0,0 l/m 5,0 km/h N -3,5 C -1,2 C 12,9 km/h
17.03.2018 19:00 -1,6 C 84 % 1003,1 hPa 0,0 l/m 4,9 km/h N -4,0 C -1,6 C 11,7 km/h
17.03.2018 20:00 -1,9 C 84 % 1003,6 hPa 0,0 l/m 4,4 km/h N -4,3 C -1,9 C 11,7 km/h
17.03.2018 21:00 -2,5 C 84 % 1004,0 hPa 0,0 l/m 5,2 km/h N -4,8 C -2,5 C 16,5 km/h
17.03.2018 22:00 -3,2 C 84 % 1004,4 hPa 0,0 l/m 7,0 km/h N -5,5 C -3,9 C 16,1 km/h
17.03.2018 23:00 -3,7 C 84 % 1004,7 hPa 0,0 l/m 8,8 km/h N -6,0 C -6,3 C 20,9 km/h
18.03.2018 00:00 -3,7 C 83 % 1004,9 hPa 0,0 l/m 7,3 km/h N -6,1 C -4,8 C 19,3 km/h
18.03.2018 01:00 -3,8 C 81 % 1005,2 hPa 0,0 l/m 7,2 km/h N -6,6 C -4,8 C 18,1 km/h
18.03.2018 02:00 -4,0 C 80 % 1005,0 hPa 0,0 l/m 6,2 km/h N -6,9 C -4,0 C 18,5 km/h
18.03.2018 03:00 -4,5 C 82 % 1005,1 hPa 0,0 l/m 5,8 km/h N -7,2 C -4,5 C 14,1 km/h
18.03.2018 04:00 -4,8 C 82 % 1005,1 hPa 0,0 l/m 7,0 km/h N -7,4 C -5,6 C 20,1 km/h
18.03.2018 05:00 -5,0 C 81 % 1005,3 hPa 0,0 l/m 6,3 km/h N -7,7 C -5,2 C 16,5 km/h
18.03.2018 06:00 -5,1 C 80 % 1005,7 hPa 0,0 l/m 6,2 km/h N -8,0 C -5,2 C 17,3 km/h
18.03.2018 07:00 -5,2 C 80 % 1006,0 hPa 0,0 l/m 6,5 km/h N -8,1 C -5,6 C 18,9 km/h
18.03.2018 08:00 -5,0 C 78 % 1006,6 hPa 0,0 l/m 6,1 km/h N -8,3 C -5,1 C 15,3 km/h
18.03.2018 09:00 -4,7 C 76 % 1007,1 hPa 0,0 l/m 4,2 km/h N -8,3 C -4,7 C 12,9 km/h
18.03.2018 10:00 -4,1 C 74 % 1007,3 hPa 0,0 l/m 4,7 km/h N -8,0 C -4,1 C 12,1 km/h
18.03.2018 11:00 -2,8 C 71 % 1007,2 hPa 0,0 l/m 5,1 km/h N -7,4 C -2,9 C 14,9 km/h
18.03.2018 12:00 -1,6 C 66 % 1007,2 hPa 0,3 l/m 4,2 km/h N -7,2 C -1,6 C 15,3 km/h
18.03.2018 13:00 -1,1 C 65 % 1007,1 hPa 0,8 l/m 4,3 km/h N -6,8 C -1,1 C 13,3 km/h
18.03.2018 14:00 -1,5 C 66 % 1007,4 hPa 0,0 l/m 5,2 km/h N -7,1 C -1,5 C 14,9 km/h
18.03.2018 15:00 -1,6 C 67 % 1007,6 hPa 0,3 l/m 5,0 km/h N -6,9 C -1,6 C 12,9 km/h
18.03.2018 16:00 -1,7 C 68 % 1007,8 hPa 0,0 l/m 5,0 km/h N -6,8 C -1,7 C 11,7 km/h
18.03.2018 17:00 -1,8 C 68 % 1008,3 hPa 0,0 l/m 4,8 km/h N -6,8 C -1,8 C 12,9 km/h
18.03.2018 18:00 -2,0 C 68 % 1008,9 hPa 0,0 l/m 4,7 km/h N -7,1 C -2,0 C 13,7 km/h
18.03.2018 19:00 -2,2 C 68 % 1009,5 hPa 0,0 l/m 4,7 km/h N -7,3 C -2,2 C 12,1 km/h
18.03.2018 20:00 -2,4 C 68 % 1010,0 hPa 0,0 l/m 4,4 km/h N -7,5 C -2,4 C 12,5 km/h
18.03.2018 21:00 -3,0 C 67 % 1010,3 hPa 0,0 l/m 4,6 km/h N -8,2 C -3,0 C 13,7 km/h
18.03.2018 22:00 -3,4 C 68 % 1010,4 hPa 0,0 l/m 3,6 km/h N -8,5 C -3,4 C 13,3 km/h
18.03.2018 23:00 -3,8 C 69 % 1010,2 hPa 0,0 l/m 3,0 km/h N -8,7 C -3,8 C 11,7 km/h
Min-Datum _ 18.03.18 13.03.18 12.03.18 - 12.03.18 - 18.03.18 17.03.18 12.03.18
_ Min-Zeit 07:15 15:30 06:00 - 00:45 - 23:45 23:45 04:45
Minimum _ -5,3 C 40 % 992,3 hPa - 0,0 km/h - -8,7 C -7,3 C 0,0 km/h
Max-Datum _ 12.03.18 17.03.18 14.03.18 12.03.18 13.03.18 - 12.03.18 12.03.18 14.03.18
_ Max-Zeit 10:45 13:30 11:15 16:00 11:00 - 09:00 10:45 09:00
Maximum _ 15,3 C 84 % 1011,2 hPa 2,3 l/m 15,1 km/h
N
- 8,4 C 15,1 C 37,0 km/h
N
Durchschnitt _ 6,1 C 74 % 1004,0 hPa #16,4 l/m 3,4 km/h N 1,7 C 5,7 C 11,4 km/h